Gallup, NM

6:32 AM MST on January 27, 2015 (GMT -0700)
Gallup Municipal | Change Station
CLOSE
Current Station
Airport
Location: Gallup,
Elevation: 6470 ft
Nearby Weather Stations
Active Advisory: Special Statement

Elev 6470 ft 35.51 °N, 108.79 °W | Updated 39 minutes ago

Mostly Cloudy
Mostly Cloudy
29 °F
Feels Like 23 °F
N
6
Wind Variable Wind from ENE

Today
High -- | Low -- °F
--% Chance of Precip.
Yesterday
High -- | Low -- °F
Precip. -- in
7:18 AM 5:37 PM
First Quarter, 54% visible
Pressure 30.32 in
Visibility 10.0 miles
Clouds Few 4300 ft
Mostly Cloudy 6000 ft
Windchill 23 °F
Dew Point 24 °F
Humidity 82%
Rainfall 0.00 in
Snow Depth Not available.
UV 0 out of 12
Pollen 1.80 out of 12
Air Quality Not available.
Flu Activity Not available.
METAR KGUP 271253Z AUTO 07005KT 10SM FEW043 BKN060 M02/M04 A3036 RMK AO2 SLP267 T10171044

More Conditions Fewer Conditions

Pressure 30.32 in
Visibility 10.0 miles
Clouds Few 4300 ft
Mostly Cloudy 6000 ft
Windchill 23 °F
Dew Point 24 °F
Humidity 82%
Rainfall 0.00 in
Snow Depth Not available.
UV 0 out of 12
Pollen 1.80 out of 12
Air Quality Not available.
Flu Activity Not available.
METAR KGUP 271253Z AUTO 07005KT 10SM FEW043 BKN060 M02/M04 A3036 RMK AO2 SLP267 T10171044

More Conditions Fewer Conditions

10-Day Weather Forecast

Almanac

Astronomy

Jan. 27, 2015 Rise Set
Actual Time
Civil Twilight
Nautical Twilight
Astronomical Twilight
Moon
Length of Visible Light
Length of Day
Tomorrow will be .
, % of the Moon is Illuminated

Today's Extremes

State Highs State Lows

Community

WunderPhotos

Upload Photos

1,790,614 photos uploaded!

WunderBlogs® & News

Nearby

Air Quality

  Air Quality AQ Index Pollutant
Not available.

Snow Depth

Station Depth Elevation

Earthquake Activity

City Distance Mag. Time & Date
Minimum magnitude displayed is 2.5.

Coastal Water Temperatures

Place Temperature

Nearby Weather Stations